createdAt,value
2023-03-06T06:37:03.120Z,0.50
2023-03-06T06:40:05.254Z,0.50
2023-03-06T06:43:06.955Z,0.60
2023-03-06T06:46:38.855Z,0.70
2023-03-06T06:49:30.240Z,0.80
2023-03-06T06:52:31.884Z,0.80
2023-03-06T06:55:33.692Z,1.00
2023-03-06T06:58:35.356Z,1.10
2023-03-06T07:01:37.099Z,1.20
2023-03-06T07:04:44.280Z,1.30
2023-03-06T07:07:51.454Z,1.40
2023-03-06T07:10:53.223Z,1.50
2023-03-06T07:13:56.029Z,1.60
2023-03-06T07:16:58.379Z,1.70
2023-03-06T07:20:00.146Z,1.90
2023-03-06T07:23:01.947Z,2.00
2023-03-06T07:26:04.101Z,2.10
2023-03-06T07:29:05.783Z,2.20
2023-03-06T07:32:07.464Z,2.30
2023-03-06T07:35:19.669Z,2.40
2023-03-06T07:38:22.261Z,2.50
2023-03-06T07:41:23.883Z,2.70
2023-03-06T07:44:25.968Z,2.80
2023-03-06T07:47:27.745Z,2.80
2023-03-06T07:50:29.464Z,2.90
2023-03-06T07:53:31.313Z,3.00
2023-03-06T07:56:34.950Z,3.10
2023-03-06T07:59:36.656Z,3.10
2023-03-06T08:02:38.465Z,3.20
2023-03-06T08:05:40.215Z,3.30
2023-03-06T08:08:42.508Z,3.30
2023-03-06T08:11:45.275Z,3.30
2023-03-06T08:14:46.928Z,3.30
2023-03-06T08:17:50.089Z,3.40
2023-03-06T08:21:04.284Z,3.40
2023-03-06T08:24:07.485Z,3.50
2023-03-06T08:27:09.551Z,3.50
2023-03-06T08:30:11.637Z,3.50
2023-03-06T08:33:13.287Z,3.50
2023-03-06T08:36:14.933Z,3.60
2023-03-06T08:39:16.693Z,3.60
2023-03-06T08:42:18.443Z,3.70
2023-03-06T08:45:20.520Z,3.70
2023-03-06T08:48:22.270Z,3.90
2023-03-06T08:51:24.338Z,3.90
2023-03-06T08:54:26.113Z,4.00
2023-03-06T08:57:27.843Z,4.00
2023-03-06T09:00:29.697Z,4.10
2023-03-06T09:03:31.348Z,4.10
2023-03-06T09:06:34.900Z,4.10
2023-03-06T09:09:36.654Z,4.20
2023-03-06T09:12:49.900Z,4.30
2023-03-06T09:15:52.576Z,4.40
2023-03-06T09:18:54.337Z,4.50
2023-03-06T09:21:57.777Z,4.60
2023-03-06T09:24:59.849Z,4.70
2023-03-06T09:28:10.862Z,4.70
2023-03-06T09:31:16.042Z,4.80
2023-03-06T09:34:18.016Z,4.90
2023-03-06T09:37:19.696Z,4.90
2023-03-06T09:40:34.143Z,4.90
2023-03-06T09:43:38.148Z,5.00
2023-03-06T09:47:03.595Z,5.10
2023-03-06T09:50:18.091Z,5.30
2023-03-06T09:53:29.206Z,5.50
2023-03-06T09:56:31.857Z,5.60
2023-03-06T09:59:33.556Z,5.80
2023-03-06T10:02:42.252Z,5.90
2023-03-06T10:06:12.959Z,6.10
2023-03-06T10:09:17.577Z,6.20
2023-03-06T10:12:36.588Z,6.30
2023-03-06T10:15:39.343Z,6.50
2023-03-06T10:18:41.058Z,6.60
2023-03-06T10:22:02.268Z,6.80
2023-03-06T10:25:19.461Z,7.00
2023-03-06T10:28:30.678Z,7.00
2023-03-06T10:31:32.389Z,7.00
2023-03-06T10:34:35.894Z,7.10
2023-03-06T10:37:37.553Z,7.10
2023-03-06T10:41:03.742Z,7.20
2023-03-06T10:44:05.430Z,7.20
2023-03-06T10:47:31.107Z,7.30
2023-03-06T10:50:32.786Z,7.40
2023-03-06T10:53:34.422Z,7.50
2023-03-06T10:56:38.508Z,7.80
2023-03-06T10:59:50.708Z,7.80
2023-03-06T11:03:18.872Z,7.80
2023-03-06T11:06:35.038Z,7.80
2023-03-06T11:09:36.697Z,7.80
2023-03-06T11:12:39.229Z,8.10
2023-03-06T11:15:41.151Z,8.10
2023-03-06T11:18:42.913Z,8.10
2023-03-06T11:21:44.565Z,8.10
2023-03-06T11:24:48.598Z,8.20
2023-03-06T11:28:07.495Z,8.30
2023-03-06T11:31:31.879Z,8.20
2023-03-06T11:34:50.649Z,8.20
2023-03-06T11:38:00.768Z,8.20
2023-03-06T11:41:04.551Z,8.20
2023-03-06T11:44:40.309Z,8.20
2023-03-06T11:47:44.363Z,8.30
2023-03-06T11:50:46.466Z,8.50
2023-03-06T11:53:48.216Z,8.60
2023-03-06T11:56:56.259Z,8.50
2023-03-06T12:00:12.547Z,8.50
2023-03-06T12:03:31.240Z,8.60
2023-03-06T12:07:00.994Z,8.60
2023-03-06T12:10:17.403Z,8.60
2023-03-06T12:17:08.812Z,8.80
2023-03-06T12:20:32.981Z,8.90
2023-03-06T12:24:30.009Z,9.10
2023-03-06T12:27:53.278Z,9.20
2023-03-06T12:30:54.876Z,9.20
2023-03-06T12:34:01.417Z,9.20
2023-03-06T12:37:22.432Z,9.20
2023-03-06T12:40:42.624Z,9.40
2023-03-06T12:43:46.316Z,9.40
2023-03-06T12:47:10.809Z,9.50
2023-03-06T12:50:38.842Z,9.70
2023-03-06T12:53:40.485Z,9.60
2023-03-06T12:56:42.371Z,9.60
2023-03-06T12:59:48.517Z,9.60
2023-03-06T13:02:50.278Z,9.50
2023-03-06T13:05:58.043Z,9.50
2023-03-06T13:09:13.167Z,9.50
2023-03-06T13:12:38.133Z,9.50
2023-03-06T13:15:47.038Z,9.40
2023-03-06T13:19:04.512Z,9.40
2023-03-06T13:22:14.042Z,9.40
2023-03-06T13:25:18.932Z,9.40
2023-03-06T13:28:48.682Z,9.40
2023-03-06T13:31:53.351Z,9.40
2023-03-06T13:34:55.000Z,9.30
2023-03-06T13:37:57.268Z,9.30
2023-03-06T13:41:20.655Z,9.20
2023-03-06T13:44:25.406Z,9.10
2023-03-06T13:47:32.330Z,9.10
2023-03-06T13:50:37.982Z,9.20
2023-03-06T13:54:13.926Z,9.10
2023-03-06T13:57:15.787Z,9.10
2023-03-06T14:00:41.656Z,9.40
2023-03-06T14:03:56.737Z,9.40
2023-03-06T14:07:18.857Z,9.60
2023-03-06T14:10:22.670Z,9.60
2023-03-06T14:13:32.097Z,9.50
2023-03-06T14:16:49.482Z,9.40
2023-03-06T14:19:52.099Z,9.20
2023-03-06T14:22:53.824Z,9.00
2023-03-06T14:25:58.172Z,9.00
2023-03-06T14:29:03.404Z,8.90
2023-03-06T14:32:09.112Z,8.80
2023-03-06T14:35:21.837Z,8.80
2023-03-06T14:38:23.564Z,8.60
2023-03-06T14:41:29.953Z,8.60
2023-03-06T14:44:31.691Z,8.50
2023-03-06T14:47:53.269Z,8.50
2023-03-06T14:50:55.915Z,8.40
2023-03-06T14:54:00.726Z,8.40
2023-03-06T14:57:15.040Z,8.30
2023-03-06T15:00:19.444Z,8.20
2023-03-06T15:03:45.668Z,8.10
2023-03-06T15:06:48.678Z,8.00
2023-03-06T15:09:51.770Z,7.90
2023-03-06T15:12:53.525Z,7.80
2023-03-06T15:15:57.114Z,7.80
2023-03-06T15:19:02.394Z,7.60
2023-03-06T15:22:04.076Z,7.50
2023-03-06T15:25:15.035Z,7.30
2023-03-06T15:28:38.639Z,7.20
2023-03-06T15:31:44.243Z,7.20
2023-03-06T15:34:45.958Z,7.20
2023-03-06T15:37:47.620Z,7.20
2023-03-06T15:40:57.193Z,7.20
2023-03-06T15:43:59.496Z,7.20
2023-03-06T15:47:09.276Z,7.20
2023-03-06T15:50:22.223Z,7.20
2023-03-06T15:53:23.893Z,7.30
2023-03-06T15:56:37.695Z,7.40
2023-03-06T15:59:42.839Z,7.40
2023-03-06T16:02:44.535Z,7.40
2023-03-06T16:05:46.388Z,7.40
2023-03-06T16:08:48.016Z,7.40
2023-03-06T16:11:49.656Z,7.30
2023-03-06T16:14:51.315Z,7.30
2023-03-06T16:17:53.458Z,7.30
2023-03-06T16:20:55.310Z,7.20
2023-03-06T16:23:56.957Z,7.20
2023-03-06T16:27:00.491Z,7.20
2023-03-06T16:30:02.359Z,7.20
2023-03-06T16:33:04.487Z,7.00
2023-03-06T16:36:18.857Z,7.00
2023-03-06T16:39:21.856Z,6.90
2023-03-06T16:42:23.505Z,6.90
2023-03-06T16:45:25.363Z,6.90
2023-03-06T16:48:27.000Z,6.80
2023-03-06T16:51:28.641Z,6.80
2023-03-06T16:54:30.436Z,6.80
2023-03-06T16:57:35.576Z,6.80
2023-03-06T17:00:37.272Z,6.80
2023-03-06T17:03:39.320Z,6.70
2023-03-06T17:06:41.874Z,6.70
2023-03-06T17:09:43.861Z,6.70
2023-03-06T17:12:45.597Z,6.70
2023-03-06T17:15:58.898Z,6.60
2023-03-06T17:19:02.372Z,6.60
2023-03-06T17:22:04.033Z,6.60
2023-03-06T17:25:06.793Z,6.60
2023-03-06T17:28:08.438Z,6.50
2023-03-06T17:31:21.013Z,6.50
2023-03-06T17:34:24.567Z,6.40
2023-03-06T17:37:26.424Z,6.40
2023-03-06T17:40:28.158Z,6.40
2023-03-06T17:43:29.803Z,6.40
2023-03-06T17:46:32.099Z,6.40
2023-03-06T17:49:33.820Z,6.30
2023-03-06T17:52:35.513Z,6.30
2023-03-06T17:55:38.573Z,6.30
2023-03-06T17:58:40.191Z,6.30
2023-03-06T18:01:41.891Z,6.30
2023-03-06T18:04:43.701Z,6.30
2023-03-06T18:07:45.844Z,6.30
2023-03-06T18:10:47.599Z,6.20
2023-03-06T18:13:49.391Z,6.20
2023-03-06T18:16:51.335Z,6.30
2023-03-06T18:19:53.012Z,6.30
2023-03-06T18:22:54.678Z,6.20
2023-03-06T18:26:15.885Z,6.20
2023-03-06T18:29:17.633Z,6.20
2023-03-06T18:32:19.341Z,6.20
2023-03-06T18:35:21.436Z,6.20
2023-03-06T18:38:23.228Z,6.20
2023-03-06T18:41:24.951Z,6.20
2023-03-06T18:44:26.580Z,6.20
2023-03-06T18:47:28.455Z,6.20
2023-03-06T18:50:30.069Z,6.20
2023-03-06T18:53:31.770Z,6.30
2023-03-06T18:56:33.751Z,6.30
2023-03-06T18:59:35.406Z,6.30
2023-03-06T19:02:37.037Z,6.30
2023-03-06T19:05:43.555Z,6.30
2023-03-06T19:08:45.262Z,6.20
2023-03-06T19:11:47.526Z,6.30
2023-03-06T19:14:49.232Z,6.30
2023-03-06T19:17:51.419Z,6.30
2023-03-06T19:20:53.263Z,6.20
2023-03-06T19:23:55.198Z,6.20
2023-03-06T19:26:56.985Z,6.20
2023-03-06T19:29:58.785Z,6.20
2023-03-06T19:33:00.471Z,6.20
2023-03-06T19:36:03.201Z,6.10
2023-03-06T19:39:05.766Z,6.10
2023-03-06T19:42:07.569Z,6.10
2023-03-06T19:45:09.477Z,6.10
2023-03-06T19:48:12.447Z,6.10
2023-03-06T19:51:14.161Z,6.10
2023-03-06T19:54:16.055Z,6.10
2023-03-06T19:57:17.743Z,6.10
2023-03-06T20:00:19.791Z,6.20
2023-03-06T20:03:21.502Z,6.10
2023-03-06T20:06:23.815Z,5.90
2023-03-06T20:09:25.647Z,5.70
2023-03-06T20:12:27.373Z,5.60
2023-03-06T20:15:29.418Z,5.50
2023-03-06T20:18:31.085Z,5.50
2023-03-06T20:21:35.277Z,5.50
2023-03-06T20:24:36.904Z,5.50
2023-03-06T20:27:39.220Z,5.50
2023-03-06T20:30:40.848Z,5.50
2023-03-06T20:33:43.605Z,5.50
2023-03-06T20:36:45.348Z,5.60
2023-03-06T20:39:47.800Z,5.60
2023-03-06T20:42:49.500Z,5.70
2023-03-06T20:46:02.139Z,5.70
2023-03-06T20:49:04.004Z,5.70
2023-03-06T20:52:05.653Z,5.80
2023-03-06T20:55:07.620Z,5.80
2023-03-06T20:58:09.263Z,5.80
2023-03-06T21:01:24.187Z,5.80
2023-03-06T21:04:25.906Z,5.80
2023-03-06T21:07:27.697Z,5.80
2023-03-06T21:10:31.013Z,5.80
2023-03-06T21:13:32.645Z,5.80
2023-03-06T21:16:34.557Z,5.80
2023-03-06T21:19:36.780Z,5.80
2023-03-06T21:22:38.502Z,5.80
2023-03-06T21:25:47.739Z,5.80
2023-03-06T21:28:49.505Z,5.70
2023-03-06T21:31:51.220Z,5.70
2023-03-06T21:34:52.863Z,5.70
2023-03-06T21:37:54.585Z,5.70
2023-03-06T21:40:56.334Z,5.60
2023-03-06T21:43:59.783Z,5.60
2023-03-06T21:47:01.724Z,5.60
